createdAt,value
2018-12-08T00:02:04.978Z,100170.36
2018-12-08T00:04:34.348Z,100178.52
2018-12-08T00:07:03.732Z,100186.84
2018-12-08T00:09:33.056Z,100177.89
2018-12-08T00:12:04.449Z,100189.77
2018-12-08T00:14:33.606Z,100181.38
2018-12-08T00:17:02.784Z,100177.53
2018-12-08T00:19:32.911Z,100186.31
2018-12-08T00:22:02.534Z,100180.17
2018-12-08T00:24:32.327Z,100187.72
2018-12-08T00:27:01.787Z,100192.73
2018-12-08T00:29:30.961Z,100194.19
2018-12-08T00:32:00.236Z,100189.97
2018-12-08T00:34:30.623Z,100200.38
2018-12-08T00:36:59.801Z,100204.39
2018-12-08T00:39:28.993Z,100210.77
2018-12-08T00:41:58.175Z,100207.28
2018-12-08T00:44:27.383Z,100199.64
2018-12-08T00:46:57.451Z,100208.38
2018-12-08T00:49:26.724Z,100201.33
2018-12-08T00:51:55.918Z,100201.86
2018-12-08T00:54:25.260Z,100218.25
2018-12-08T00:56:55.788Z,100216.66
2018-12-08T00:59:28.536Z,100229.95
2018-12-08T01:01:57.667Z,100219.19
2018-12-08T01:04:26.901Z,100219.11
2018-12-08T01:06:56.893Z,100235.76
2018-12-08T01:09:26.624Z,100223.55
2018-12-08T01:11:56.192Z,100231.94
2018-12-08T01:14:25.711Z,100221.30
2018-12-08T01:16:56.277Z,100235.31
2018-12-08T01:19:25.488Z,100231.36
2018-12-08T01:21:55.919Z,100237.55
2018-12-08T01:24:25.648Z,100243.84
2018-12-08T01:26:55.379Z,100247.32
2018-12-08T01:29:24.606Z,100233.91
2018-12-08T01:31:53.948Z,100251.64
2018-12-08T01:34:23.655Z,100240.51
2018-12-08T01:36:53.271Z,100240.56
2018-12-08T01:39:22.567Z,100247.28
2018-12-08T01:41:51.867Z,100240.31
2018-12-08T01:44:21.032Z,100238.34
2018-12-08T01:46:51.230Z,100236.55
2018-12-08T01:49:21.042Z,100240.30
2018-12-08T01:51:50.237Z,100229.33
2018-12-08T01:54:19.511Z,100234.33
2018-12-08T01:56:48.955Z,100231.33
2018-12-08T01:59:18.607Z,100221.50
2018-12-08T02:01:48.495Z,100232.33
2018-12-08T02:04:17.698Z,100227.20
2018-12-08T02:06:46.876Z,100231.44
2018-12-08T02:09:16.988Z,100227.90
2018-12-08T02:11:49.595Z,100234.31
2018-12-08T02:14:18.813Z,100236.13
2018-12-08T02:16:48.063Z,100234.50
2018-12-08T02:19:17.424Z,100194.20
2018-12-08T02:21:47.545Z,100229.19
2018-12-08T02:24:17.684Z,100221.57
2018-12-08T02:26:48.442Z,100225.20
2018-12-08T02:29:19.178Z,100230.40
2018-12-08T02:31:48.489Z,100227.02
2018-12-08T02:34:18.501Z,100224.45
2018-12-08T02:36:47.758Z,100224.81
2018-12-08T02:39:16.921Z,100213.09
2018-12-08T02:41:46.079Z,100217.28
2018-12-08T02:44:15.280Z,100213.58
2018-12-08T02:46:46.328Z,100218.19
2018-12-08T02:49:15.574Z,100220.79
2018-12-08T02:51:44.798Z,100218.39
2018-12-08T02:54:15.302Z,100212.11
2018-12-08T02:56:45.054Z,100219.47
2018-12-08T02:59:14.198Z,100214.52
2018-12-08T03:01:43.449Z,100208.12
2018-12-08T03:04:12.782Z,100206.87
2018-12-08T03:06:42.819Z,100202.39
2018-12-08T03:09:14.339Z,100205.77
2018-12-08T03:11:43.518Z,100198.33
2018-12-08T03:14:12.792Z,100202.10
2018-12-08T03:16:42.020Z,100197.77
2018-12-08T03:19:11.196Z,100199.87
2018-12-08T03:21:41.438Z,100196.56
2018-12-08T03:24:10.719Z,100196.98
2018-12-08T03:26:39.899Z,100189.00
2018-12-08T03:29:09.084Z,100177.84
2018-12-08T03:31:39.976Z,100183.58
2018-12-08T03:34:10.384Z,100176.13
2018-12-08T03:36:39.549Z,100177.73
2018-12-08T03:39:09.237Z,100189.70
2018-12-08T03:41:38.472Z,100173.78
2018-12-08T03:44:07.639Z,100173.66
2018-12-08T03:46:37.924Z,100169.75
2018-12-08T03:49:07.116Z,100179.66
2018-12-08T03:51:36.423Z,100174.18
2018-12-08T03:54:05.787Z,100164.76
2018-12-08T03:56:35.040Z,100173.04
2018-12-08T03:59:07.907Z,100167.42
2018-12-08T04:01:37.205Z,100155.82
2018-12-08T04:04:06.352Z,100175.41
2018-12-08T04:06:35.635Z,100176.37
2018-12-08T04:09:05.673Z,100179.64
2018-12-08T04:11:36.493Z,100162.68
2018-12-08T04:14:05.647Z,100153.45
2018-12-08T04:16:34.915Z,100149.95
2018-12-08T04:19:04.066Z,100149.86
2018-12-08T04:21:34.645Z,100149.92
2018-12-08T04:24:04.476Z,100148.38
2018-12-08T04:26:33.707Z,100144.73
2018-12-08T04:29:02.934Z,100141.89
2018-12-08T04:31:32.100Z,100145.20
2018-12-08T04:34:02.293Z,100136.49
2018-12-08T04:36:31.997Z,100137.77
2018-12-08T04:39:01.237Z,100142.88
2018-12-08T04:41:31.612Z,100142.36
2018-12-08T04:44:00.774Z,100152.11
2018-12-08T04:46:31.434Z,100141.09
2018-12-08T04:49:01.139Z,100129.73
2018-12-08T04:51:31.341Z,100121.81
2018-12-08T04:54:00.519Z,100147.34
2018-12-08T04:56:29.715Z,100133.17
2018-12-08T04:58:59.434Z,100128.17
2018-12-08T05:01:29.085Z,100128.11
2018-12-08T05:03:58.383Z,100132.91
2018-12-08T05:06:27.748Z,100122.09
2018-12-08T05:08:56.953Z,100132.33
2018-12-08T05:11:27.443Z,100134.17
2018-12-08T05:13:56.999Z,100139.94
2018-12-08T05:16:26.164Z,100147.16
2018-12-08T05:18:55.460Z,100138.33
2018-12-08T05:21:24.743Z,100130.69
2018-12-08T05:23:54.355Z,100137.58
2018-12-08T05:26:24.214Z,100144.73
2018-12-08T05:28:53.349Z,100138.78
2018-12-08T05:31:22.523Z,100129.42
2018-12-08T05:33:52.848Z,100132.23
2018-12-08T05:36:23.242Z,100135.89
2018-12-08T05:38:52.843Z,100131.57
2018-12-08T05:41:22.150Z,100139.35
2018-12-08T05:43:51.352Z,100129.75
2018-12-08T05:46:20.667Z,100124.48
2018-12-08T05:48:50.530Z,100129.36
2018-12-08T05:51:20.179Z,100123.50
2018-12-08T05:53:49.340Z,100121.81
2018-12-08T05:56:18.794Z,100131.34
2018-12-08T05:58:47.967Z,100142.55
2018-12-08T06:01:18.702Z,100135.74
2018-12-08T06:03:49.286Z,100135.09
2018-12-08T06:06:18.519Z,100121.33
2018-12-08T06:08:47.670Z,100121.30
2018-12-08T06:11:18.160Z,100122.48
2018-12-08T06:13:47.810Z,100122.16
2018-12-08T06:16:17.633Z,100112.50
2018-12-08T06:18:47.113Z,100104.69
2018-12-08T06:21:16.268Z,100122.48
2018-12-08T06:23:45.444Z,100137.20
2018-12-08T06:26:22.203Z,100126.41
2018-12-08T06:28:54.165Z,100116.14
2018-12-08T06:31:23.419Z,100117.91
2018-12-08T06:33:52.582Z,100128.94
2018-12-08T06:36:23.058Z,100126.41
2018-12-08T06:38:52.300Z,100127.76
2018-12-08T06:41:21.594Z,100122.95
2018-12-08T06:43:50.857Z,100103.85
2018-12-08T06:46:20.019Z,100107.09
2018-12-08T06:48:51.537Z,100116.14
2018-12-08T06:51:20.798Z,100101.20
2018-12-08T06:53:50.053Z,100108.53
2018-12-08T06:56:19.305Z,100110.20
2018-12-08T06:58:48.435Z,100101.02
2018-12-08T07:02:47.900Z,100103.87
2018-12-08T07:05:17.216Z,100098.69
2018-12-08T07:07:46.784Z,100095.63
2018-12-08T07:10:15.994Z,100107.41
2018-12-08T07:12:46.488Z,100094.56
2018-12-08T07:15:15.679Z,100092.40
2018-12-08T07:17:46.155Z,100090.23
2018-12-08T07:20:15.443Z,100086.41
2018-12-08T07:22:44.655Z,100077.09
2018-12-08T07:25:14.663Z,100076.80
2018-12-08T07:27:43.901Z,100071.43
2018-12-08T07:30:13.219Z,100068.78
2018-12-08T07:32:42.503Z,100074.23
2018-12-08T07:35:11.802Z,100079.89
2018-12-08T07:37:43.817Z,100081.31
2018-12-08T07:40:12.979Z,100079.34
2018-12-08T07:42:42.128Z,100062.77
2018-12-08T07:45:12.049Z,100058.33
2018-12-08T07:47:41.771Z,100057.46
2018-12-08T07:50:11.620Z,100077.78
2018-12-08T07:52:41.945Z,100058.69
2018-12-08T07:55:11.144Z,100060.65
2018-12-08T07:57:40.355Z,100066.06
2018-12-08T08:00:13.080Z,100068.11
2018-12-08T08:04:11.679Z,100058.75
2018-12-08T08:06:40.935Z,100064.19
2018-12-08T08:09:10.273Z,100065.88
2018-12-08T08:11:40.587Z,100054.02
2018-12-08T08:14:10.808Z,100053.44
2018-12-08T08:16:39.994Z,100053.73
2018-12-08T08:19:09.145Z,100050.92
2018-12-08T08:21:38.324Z,100047.84
2018-12-08T08:24:09.382Z,100047.86
2018-12-08T08:26:38.562Z,100047.34
2018-12-08T08:29:07.845Z,100041.29
2018-12-08T08:31:37.132Z,100045.56
2018-12-08T08:34:06.282Z,100048.94
2018-12-08T08:36:36.477Z,100052.80
2018-12-08T08:39:08.030Z,100057.64
2018-12-08T08:41:37.389Z,100053.88
2018-12-08T08:44:06.556Z,100044.04
2018-12-08T08:46:37.759Z,100045.25
2018-12-08T08:49:07.115Z,100045.86
2018-12-08T08:51:36.403Z,100044.91
2018-12-08T08:54:05.552Z,100040.81
2018-12-08T08:56:34.862Z,100042.80
2018-12-08T08:59:05.288Z,100046.12
2018-12-08T09:01:34.505Z,100036.42
2018-12-08T09:04:05.482Z,100032.06
2018-12-08T09:06:34.639Z,100024.58
2018-12-08T09:09:05.067Z,100020.45
2018-12-08T09:11:36.757Z,100037.96
2018-12-08T09:14:13.050Z,100019.02
2018-12-08T09:16:37.184Z,100031.91
2018-12-08T09:19:07.340Z,100032.80
2018-12-08T09:21:36.523Z,100023.84
2018-12-08T09:24:05.779Z,100026.59
2018-12-08T09:26:35.061Z,100033.02
2018-12-08T09:29:04.546Z,100022.22
2018-12-08T09:31:36.963Z,100021.13
2018-12-08T09:34:06.146Z,100022.92
2018-12-08T09:36:35.445Z,100027.47
2018-12-08T09:39:07.522Z,100022.92
2018-12-08T09:41:37.635Z,100030.00
2018-12-08T09:44:06.840Z,100027.63
2018-12-08T09:46:36.146Z,100039.06
2018-12-08T09:49:05.310Z,100038.11
2018-12-08T09:51:35.030Z,100046.97
2018-12-08T09:54:07.396Z,100047.88
2018-12-08T09:56:36.802Z,100051.44
2018-12-08T09:59:05.969Z,100044.59
2018-12-08T10:01:35.187Z,100041.34
2018-12-08T10:04:06.171Z,100033.78
2018-12-08T10:06:35.340Z,100019.65
2018-12-08T10:09:06.691Z,100034.05
2018-12-08T10:11:35.883Z,100022.95
2018-12-08T10:14:05.769Z,100019.84
2018-12-08T10:16:36.937Z,100035.84
2018-12-08T10:19:06.164Z,100020.16
2018-12-08T10:21:35.336Z,100024.20
2018-12-08T10:24:04.745Z,100016.52
2018-12-08T10:26:35.026Z,100014.80
2018-12-08T10:29:04.784Z,100031.14
2018-12-08T10:31:33.991Z,100024.28
2018-12-08T10:34:03.219Z,100017.97
2018-12-08T10:36:32.390Z,100011.34
2018-12-08T10:39:04.120Z,100016.33
2018-12-08T10:41:33.351Z,100013.82
2018-12-08T10:44:02.595Z,100015.57
2018-12-08T10:46:31.880Z,100014.41
2018-12-08T10:49:02.470Z,100001.30
2018-12-08T10:51:32.093Z,100020.72
2018-12-08T10:54:03.280Z,100016.95
2018-12-08T10:56:32.566Z,100016.47
2018-12-08T10:59:01.917Z,100010.17
2018-12-08T11:01:37.346Z,100011.10
2018-12-08T11:04:08.212Z,100007.78
2018-12-08T11:06:37.427Z,100006.05
2018-12-08T11:09:07.768Z,100013.67
2018-12-08T11:11:37.943Z,100013.13
2018-12-08T11:14:07.130Z,100003.75
2018-12-08T11:16:36.688Z,100006.36
2018-12-08T11:19:06.074Z,100007.14
2018-12-08T11:21:35.254Z,100009.48
2018-12-08T11:24:05.911Z,100007.78
2018-12-08T11:26:35.168Z,100012.60
2018-12-08T11:29:04.915Z,100003.78
2018-12-08T11:31:34.134Z,100003.41
2018-12-08T11:34:03.406Z,100008.98
2018-12-08T11:36:34.112Z,100019.31
2018-12-08T11:39:05.072Z,100012.25
2018-12-08T11:41:38.883Z,100010.72
2018-12-08T11:44:08.212Z,100021.62
2018-12-08T11:46:39.734Z,100018.58
2018-12-08T11:49:09.041Z,100007.46
2018-12-08T11:51:38.668Z,100014.52
2018-12-08T11:54:07.867Z,100022.47
2018-12-08T11:56:38.896Z,100038.37
2018-12-08T11:59:08.873Z,100031.67
2018-12-08T12:01:38.047Z,100027.87
2018-12-08T12:04:07.247Z,100014.00
2018-12-08T12:06:36.479Z,100023.43
2018-12-08T12:09:08.594Z,100021.38
2018-12-08T12:11:37.759Z,100005.75
2018-12-08T12:14:06.995Z,100017.17
2018-12-08T12:16:36.946Z,100008.16
2018-12-08T12:19:08.164Z,100015.59
2018-12-08T12:21:37.972Z,100010.88
2018-12-08T12:24:07.148Z,100019.98
2018-12-08T12:26:36.314Z,100012.39
2018-12-08T12:29:05.674Z,100023.56
2018-12-08T12:31:35.339Z,100018.12
2018-12-08T12:34:05.003Z,100010.63
2018-12-08T12:36:34.275Z,100019.19
2018-12-08T12:39:05.414Z,100012.11
2018-12-08T12:41:35.272Z,100018.77
2018-12-08T12:44:05.549Z,100019.77
2018-12-08T12:46:34.732Z,100024.80
2018-12-08T12:49:03.939Z,100008.55
2018-12-08T12:51:34.235Z,100014.33
2018-12-08T12:54:04.291Z,100005.06
2018-12-08T12:56:34.876Z,100023.89
2018-12-08T12:59:04.071Z,100011.98
2018-12-08T13:01:33.271Z,100006.40
2018-12-08T13:04:02.626Z,100002.63
2018-12-08T13:06:35.018Z,100004.33
2018-12-08T13:09:06.741Z,100007.19
2018-12-08T13:11:35.907Z,99999.16
2018-12-08T13:14:05.207Z,99997.24
2018-12-08T13:16:34.950Z,100007.80
2018-12-08T13:19:04.701Z,99997.55
2018-12-08T13:21:33.860Z,99996.48
2018-12-08T13:24:03.126Z,100000.86
2018-12-08T13:26:32.320Z,100011.48
2018-12-08T13:29:03.216Z,100005.66
2018-12-08T13:31:32.852Z,100012.32
2018-12-08T13:34:12.158Z,99998.91
2018-12-08T13:36:41.954Z,99996.97
2018-12-08T13:39:11.772Z,99993.95
2018-12-08T13:41:41.427Z,99993.95
2018-12-08T13:44:18.549Z,99982.66
2018-12-08T13:46:47.730Z,99981.28
2018-12-08T13:49:17.376Z,99984.02
2018-12-08T13:51:47.065Z,99988.05
2018-12-08T13:54:53.461Z,99979.28
2018-12-08T13:57:22.892Z,99980.23
2018-12-08T13:59:54.427Z,99971.19
2018-12-08T14:02:25.028Z,99981.16
2018-12-08T14:04:54.416Z,99982.23
2018-12-08T14:07:23.586Z,99978.45
2018-12-08T14:09:53.324Z,99979.02
2018-12-08T14:12:22.739Z,99977.39
2018-12-08T14:14:52.540Z,99973.26
2018-12-08T14:17:21.789Z,99970.33
2018-12-08T14:19:50.961Z,99967.00
2018-12-08T14:22:21.817Z,99966.86
2018-12-08T14:24:51.062Z,99962.52
2018-12-08T14:27:20.822Z,99969.68
2018-12-08T14:29:50.011Z,99972.48
2018-12-08T14:32:19.424Z,99964.72
2018-12-08T14:34:49.341Z,99962.47
2018-12-08T14:37:18.532Z,99964.72
2018-12-08T14:39:49.471Z,99957.73
2018-12-08T14:42:18.670Z,99969.63
2018-12-08T14:44:49.491Z,99972.02
2018-12-08T14:47:19.179Z,99958.81
2018-12-08T14:49:48.479Z,99961.07
2018-12-08T14:52:18.116Z,99958.20
2018-12-08T14:54:47.299Z,99958.70
2018-12-08T14:57:16.902Z,99961.39
2018-12-08T14:59:46.104Z,99961.64
2018-12-08T15:02:15.367Z,99964.48
2018-12-08T15:04:44.954Z,99951.64
2018-12-08T15:07:14.174Z,99959.20
2018-12-08T15:09:44.597Z,99960.44
2018-12-08T15:12:13.743Z,99969.48
2018-12-08T15:14:42.922Z,99950.02
2018-12-08T15:17:12.917Z,99949.54
2018-12-08T15:19:42.076Z,99951.41
2018-12-08T15:22:11.682Z,99942.08
2018-12-08T15:24:40.968Z,99964.08
2018-12-08T15:27:10.170Z,99949.72
2018-12-08T15:29:39.983Z,99942.73
2018-12-08T15:32:09.379Z,99951.03
2018-12-08T15:34:39.163Z,99954.96
2018-12-08T15:37:08.523Z,99944.59
2018-12-08T15:39:37.796Z,99939.70
2018-12-08T15:42:08.584Z,99940.32
2018-12-08T15:44:40.214Z,99933.97
2018-12-08T15:47:11.016Z,99936.45
2018-12-08T15:49:40.489Z,99933.52
2018-12-08T15:52:12.512Z,99928.94
2018-12-08T15:54:44.892Z,99931.45
2018-12-08T15:57:14.194Z,99926.52
2018-12-08T15:59:43.419Z,99926.28
2018-12-08T16:02:12.584Z,99922.36
2018-12-08T16:04:41.841Z,99924.87
2018-12-08T16:07:13.125Z,99913.44
2018-12-08T16:09:42.326Z,99908.89
2018-12-08T16:12:11.590Z,99912.88
2018-12-08T16:14:40.790Z,99906.66
2018-12-08T16:17:11.480Z,99897.96
2018-12-08T16:19:41.734Z,99895.95
2018-12-08T16:22:10.975Z,99894.56
2018-12-08T16:24:40.228Z,99876.69
2018-12-08T16:27:09.757Z,99875.38
2018-12-08T16:29:39.000Z,99862.41
2018-12-08T16:32:10.077Z,99868.98
2018-12-08T16:34:39.420Z,99866.05
2018-12-08T16:37:08.684Z,99875.06
2018-12-08T16:39:37.940Z,99861.70
2018-12-08T16:42:07.267Z,99853.89
2018-12-08T16:44:37.775Z,99849.94
2018-12-08T16:47:07.204Z,99848.59
2018-12-08T16:49:37.229Z,99843.45
2018-12-08T16:52:06.847Z,99836.05
2018-12-08T16:54:36.748Z,99834.72
2018-12-08T16:57:06.741Z,99836.31
2018-12-08T16:59:36.024Z,99825.31
2018-12-08T17:02:05.724Z,99829.38
2018-12-08T17:04:34.978Z,99814.08
2018-12-08T17:07:05.287Z,99820.63
2018-12-08T17:09:34.587Z,99820.50
2018-12-08T17:12:03.955Z,99822.33
2018-12-08T17:14:33.523Z,99813.98
2018-12-08T17:17:02.699Z,99806.22
2018-12-08T17:19:33.211Z,99790.40
2018-12-08T17:22:02.431Z,99794.97
2018-12-08T17:24:31.782Z,99787.41
2018-12-08T17:27:01.012Z,99787.19
2018-12-08T17:29:30.273Z,99778.58
2018-12-08T17:32:01.586Z,99767.52
2018-12-08T17:34:30.754Z,99763.69
2018-12-08T17:36:59.968Z,99756.92
2018-12-08T17:39:29.983Z,99755.84
2018-12-08T17:41:59.886Z,99736.19
2018-12-08T17:44:30.486Z,99735.52
2018-12-08T17:46:59.811Z,99731.91
2018-12-08T17:49:29.086Z,99730.91
2018-12-08T17:51:59.271Z,99719.33
2018-12-08T17:54:29.272Z,99708.73
2018-12-08T17:56:58.493Z,99714.95
2018-12-08T17:59:27.757Z,99698.18
2018-12-08T18:03:26.419Z,99687.55
2018-12-08T18:05:57.655Z,99675.06
2018-12-08T18:08:27.224Z,99667.95
2018-12-08T18:10:56.621Z,99662.25
2018-12-08T18:13:26.030Z,99652.93
2018-12-08T18:15:55.867Z,99642.18
2018-12-08T18:18:25.978Z,99637.66
2018-12-08T18:20:55.261Z,99635.70
2018-12-08T18:23:24.875Z,99626.89
2018-12-08T18:25:54.088Z,99621.11
2018-12-08T18:28:24.239Z,99622.28
2018-12-08T18:30:54.811Z,99613.59
2018-12-08T18:33:23.990Z,99602.11
2018-12-08T18:35:53.224Z,99615.45
2018-12-08T18:38:22.704Z,99605.23
2018-12-08T18:40:53.532Z,99593.27
2018-12-08T18:43:22.770Z,99576.16
2018-12-08T18:45:52.187Z,99570.40
2018-12-08T18:48:21.547Z,99565.03
2018-12-08T18:50:50.768Z,99566.07
2018-12-08T18:53:21.357Z,99551.06
2018-12-08T18:55:50.760Z,99551.70
2018-12-08T18:58:19.938Z,99545.50
2018-12-08T19:00:49.279Z,99528.89
2018-12-08T19:03:18.506Z,99521.88
2018-12-08T19:05:49.080Z,99506.83
2018-12-08T19:08:18.384Z,99495.12
2018-12-08T19:10:47.574Z,99489.05
2018-12-08T19:13:16.836Z,99486.03
2018-12-08T19:15:46.700Z,99481.09
2018-12-08T19:18:16.854Z,99471.47
2018-12-08T19:20:46.152Z,99474.92
2018-12-08T19:23:15.800Z,99475.69
2018-12-08T19:25:45.116Z,99466.94
2018-12-08T19:28:14.396Z,99472.96
2018-12-08T19:30:45.091Z,99481.06
2018-12-08T19:33:14.585Z,99465.31
2018-12-08T19:35:44.141Z,99441.25
2018-12-08T19:38:13.419Z,99420.98
2018-12-08T19:40:42.648Z,99416.48
2018-12-08T19:43:12.850Z,99400.88
2018-12-08T19:45:42.192Z,99394.11
2018-12-08T19:48:11.428Z,99368.84
2018-12-08T19:50:41.439Z,99357.05
2018-12-08T19:53:12.919Z,99338.34
2018-12-08T19:55:43.373Z,99341.15
2018-12-08T19:58:12.691Z,99324.58
2018-12-08T20:00:41.985Z,99324.22
2018-12-08T20:03:11.196Z,99317.97
2018-12-08T20:05:41.712Z,99313.19
2018-12-08T20:08:11.119Z,99321.95
2018-12-08T20:10:40.352Z,99321.30
2018-12-08T20:13:09.906Z,99315.11
2018-12-08T20:15:40.507Z,99308.39
2018-12-08T20:18:11.539Z,99298.25
2018-12-08T20:20:40.706Z,99291.03
2018-12-08T20:23:09.915Z,99278.63
2018-12-08T20:25:39.348Z,99278.30
2018-12-08T20:28:08.623Z,99245.66
2018-12-08T20:30:38.958Z,99225.80
2018-12-08T20:33:08.137Z,99219.19
2018-12-08T20:35:38.568Z,99218.38
2018-12-08T20:38:07.958Z,99203.27
2018-12-08T20:40:38.019Z,99214.22
2018-12-08T20:43:09.074Z,99222.75
2018-12-08T20:45:39.359Z,99222.00
2018-12-08T20:48:08.545Z,99211.38
2018-12-08T20:50:37.825Z,99192.27
2018-12-08T20:53:07.534Z,99179.75
2018-12-08T20:55:36.767Z,99196.98
2018-12-08T20:58:06.760Z,99174.32
2018-12-08T21:00:35.975Z,99180.00
2018-12-08T21:03:05.272Z,99177.04
2018-12-08T21:05:37.186Z,99169.25
2018-12-08T21:08:06.445Z,99173.75
2018-12-08T21:10:36.583Z,99169.73
2018-12-08T21:13:07.031Z,99172.77
2018-12-08T21:15:36.721Z,99185.44
2018-12-08T21:18:05.974Z,99187.70
2018-12-08T21:20:35.390Z,99191.80
2018-12-08T21:23:06.115Z,99189.83
2018-12-08T21:25:37.192Z,99178.11
2018-12-08T21:28:07.278Z,99153.13
2018-12-08T21:30:36.519Z,99154.53
2018-12-08T21:33:05.903Z,99082.70
2018-12-08T21:35:35.259Z,99130.39
2018-12-08T21:38:05.252Z,99124.47
2018-12-08T21:40:35.153Z,99117.20
2018-12-08T21:43:04.487Z,99120.60
2018-12-08T21:45:33.762Z,99130.08
2018-12-08T21:48:03.158Z,99117.77
2018-12-08T21:50:34.427Z,99118.95
2018-12-08T21:53:03.644Z,99110.88
2018-12-08T21:55:33.033Z,99110.19
2018-12-08T21:58:02.413Z,99108.60
2018-12-08T22:00:32.712Z,99124.22
2018-12-08T22:03:02.461Z,99097.36
2018-12-08T22:05:31.734Z,99126.94
2018-12-08T22:08:00.918Z,99126.63
2018-12-08T22:10:30.239Z,99116.30
2018-12-08T22:13:00.794Z,99133.35
2018-12-08T22:15:29.959Z,99121.25
2018-12-08T22:17:59.403Z,99133.16
2018-12-08T22:20:28.607Z,99124.67
2018-12-08T22:22:57.909Z,99122.81
2018-12-08T22:25:28.319Z,99109.11
2018-12-08T22:27:58.555Z,99108.77
2018-12-08T22:30:27.748Z,99115.34
2018-12-08T22:32:57.985Z,99096.25
2018-12-08T22:35:27.651Z,99107.92
2018-12-08T22:37:58.219Z,99096.16
2018-12-08T22:40:27.510Z,99101.87
2018-12-08T22:42:56.707Z,99095.36
2018-12-08T22:45:26.172Z,99106.55
2018-12-08T22:47:56.233Z,99110.39
2018-12-08T22:50:25.531Z,99097.77
2018-12-08T22:52:54.740Z,99099.17
2018-12-08T22:55:24.220Z,99108.40
2018-12-08T22:57:53.541Z,99106.44
2018-12-08T23:00:37.950Z,99105.26
2018-12-08T23:03:09.863Z,99101.02
2018-12-08T23:05:39.323Z,99084.50
2018-12-08T23:08:08.548Z,99076.11
2018-12-08T23:10:38.735Z,99081.10
2018-12-08T23:13:08.050Z,99070.56
2018-12-08T23:15:37.317Z,99071.05
2018-12-08T23:18:07.542Z,99071.56
2018-12-08T23:20:38.113Z,99073.05
2018-12-08T23:23:09.574Z,99059.44
2018-12-08T23:25:38.802Z,99065.20
2018-12-08T23:28:09.039Z,99059.87
2018-12-08T23:30:38.323Z,99058.16
2018-12-08T23:33:08.096Z,99069.42
2018-12-08T23:35:38.411Z,99078.22
2018-12-08T23:38:07.689Z,99074.88
2018-12-08T23:40:37.047Z,99074.96
2018-12-08T23:43:06.434Z,99075.44
2018-12-08T23:45:37.755Z,99070.64
2018-12-08T23:48:06.989Z,99069.70
2018-12-08T23:50:36.327Z,99100.30
2018-12-08T23:53:05.687Z,99115.42
2018-12-08T23:55:35.519Z,99128.88
2018-12-08T23:58:05.259Z,99110.02
